sensor_id;sensor_type;location;lat;lon;timestamp;P1;durP1;ratioP1;P2;durP2;ratioP2
9140;SDS011;46330;50.822;7.126;2023-04-24T00:00:57;1.05;;;0.95;;
9140;SDS011;46330;50.822;7.126;2023-04-24T00:03:27;1.13;;;0.80;;
9140;SDS011;46330;50.822;7.126;2023-04-24T00:05:56;2.20;;;0.80;;
9140;SDS011;46330;50.822;7.126;2023-04-24T00:08:25;1.88;;;1.00;;
9140;SDS011;46330;50.822;7.126;2023-04-24T00:10:53;0.70;;;0.70;;
9140;SDS011;46330;50.822;7.126;2023-04-24T00:13:22;1.48;;;0.90;;
9140;SDS011;46330;50.822;7.126;2023-04-24T00:15:50;0.98;;;0.80;;
9140;SDS011;46330;50.822;7.126;2023-04-24T00:18:18;0.68;;;0.68;;
9140;SDS011;46330;50.822;7.126;2023-04-24T00:20:46;0.82;;;0.68;;
9140;SDS011;46330;50.822;7.126;2023-04-24T00:23:14;0.88;;;0.80;;
9140;SDS011;46330;50.822;7.126;2023-04-24T00:25:42;1.10;;;0.82;;
9140;SDS011;46330;50.822;7.126;2023-04-24T00:28:10;0.95;;;0.90;;
9140;SDS011;46330;50.822;7.126;2023-04-24T00:30:39;2.60;;;0.93;;
9140;SDS011;46330;50.822;7.126;2023-04-24T00:33:07;0.65;;;0.65;;
9140;SDS011;46330;50.822;7.126;2023-04-24T00:35:36;4.90;;;0.95;;
9140;SDS011;46330;50.822;7.126;2023-04-24T00:38:03;1.05;;;0.70;;
9140;SDS011;46330;50.822;7.126;2023-04-24T00:40:31;1.73;;;1.00;;
9140;SDS011;46330;50.822;7.126;2023-04-24T00:42:59;1.20;;;0.90;;
9140;SDS011;46330;50.822;7.126;2023-04-24T00:45:27;1.00;;;0.70;;
9140;SDS011;46330;50.822;7.126;2023-04-24T00:47:59;1.73;;;0.80;;
9140;SDS011;46330;50.822;7.126;2023-04-24T00:50:28;0.75;;;0.75;;
9140;SDS011;46330;50.822;7.126;2023-04-24T00:52:56;0.68;;;0.68;;
9140;SDS011;46330;50.822;7.126;2023-04-24T00:55:24;1.88;;;0.80;;
9140;SDS011;46330;50.822;7.126;2023-04-24T00:57:53;0.88;;;0.63;;
9140;SDS011;46330;50.822;7.126;2023-04-24T01:00:22;0.88;;;0.50;;
9140;SDS011;46330;50.822;7.126;2023-04-24T01:02:50;0.70;;;0.70;;
9140;SDS011;46330;50.822;7.126;2023-04-24T01:05:21;0.75;;;0.60;;
9140;SDS011;46330;50.822;7.126;2023-04-24T01:07:49;1.05;;;0.60;;
9140;SDS011;46330;50.822;7.126;2023-04-24T01:10:17;1.40;;;0.75;;
9140;SDS011;46330;50.822;7.126;2023-04-24T01:12:46;1.70;;;0.82;;
9140;SDS011;46330;50.822;7.126;2023-04-24T01:15:14;2.80;;;0.77;;
9140;SDS011;46330;50.822;7.126;2023-04-24T01:17:42;0.88;;;0.70;;
9140;SDS011;46330;50.822;7.126;2023-04-24T01:20:10;0.65;;;0.65;;
9140;SDS011;46330;50.822;7.126;2023-04-24T01:22:41;0.60;;;0.52;;
9140;SDS011;46330;50.822;7.126;2023-04-24T01:25:10;0.73;;;0.70;;
9140;SDS011;46330;50.822;7.126;2023-04-24T01:27:37;0.80;;;0.70;;
9140;SDS011;46330;50.822;7.126;2023-04-24T01:30:06;0.60;;;0.60;;
9140;SDS011;46330;50.822;7.126;2023-04-24T01:32:35;1.35;;;0.70;;
9140;SDS011;46330;50.822;7.126;2023-04-24T01:35:04;1.00;;;0.80;;
9140;SDS011;46330;50.822;7.126;2023-04-24T01:37:33;1.30;;;1.05;;
9140;SDS011;46330;50.822;7.126;2023-04-24T01:40:05;3.47;;;1.52;;
9140;SDS011;46330;50.822;7.126;2023-04-24T01:42:34;1.63;;;1.23;;
9140;SDS011;46330;50.822;7.126;2023-04-24T01:45:03;1.52;;;1.40;;
9140;SDS011;46330;50.822;7.126;2023-04-24T01:47:32;1.50;;;1.40;;
9140;SDS011;46330;50.822;7.126;2023-04-24T01:50:00;4.15;;;1.50;;
9140;SDS011;46330;50.822;7.126;2023-04-24T01:52:31;3.08;;;1.50;;
9140;SDS011;46330;50.822;7.126;2023-04-24T01:54:59;2.55;;;1.80;;
9140;SDS011;46330;50.822;7.126;2023-04-24T01:57:29;2.65;;;1.50;;
9140;SDS011;46330;50.822;7.126;2023-04-24T01:59:57;2.83;;;1.70;;
9140;SDS011;46330;50.822;7.126;2023-04-24T02:02:27;2.03;;;1.35;;
9140;SDS011;46330;50.822;7.126;2023-04-24T02:04:56;3.42;;;1.60;;
9140;SDS011;46330;50.822;7.126;2023-04-24T02:07:24;4.10;;;1.70;;
9140;SDS011;46330;50.822;7.126;2023-04-24T02:09:52;2.80;;;1.65;;
9140;SDS011;46330;50.822;7.126;2023-04-24T02:12:24;2.10;;;1.80;;
9140;SDS011;46330;50.822;7.126;2023-04-24T02:14:53;2.33;;;1.67;;
9140;SDS011;46330;50.822;7.126;2023-04-24T02:17:21;3.03;;;1.95;;
9140;SDS011;46330;50.822;7.126;2023-04-24T02:19:49;1.70;;;1.60;;
9140;SDS011;46330;50.822;7.126;2023-04-24T02:22:17;2.10;;;1.80;;
9140;SDS011;46330;50.822;7.126;2023-04-24T02:24:45;3.25;;;1.83;;
9140;SDS011;46330;50.822;7.126;2023-04-24T02:27:14;2.50;;;1.80;;
9140;SDS011;46330;50.822;7.126;2023-04-24T02:29:42;2.47;;;1.88;;
9140;SDS011;46330;50.822;7.126;2023-04-24T02:32:12;2.83;;;2.17;;
9140;SDS011;46330;50.822;7.126;2023-04-24T02:34:42;4.93;;;2.92;;
9140;SDS011;46330;50.822;7.126;2023-04-24T02:37:11;4.25;;;3.00;;
9140;SDS011;46330;50.822;7.126;2023-04-24T02:39:39;5.25;;;3.30;;
9140;SDS011;46330;50.822;7.126;2023-04-24T02:42:07;5.63;;;3.80;;
9140;SDS011;46330;50.822;7.126;2023-04-24T02:44:36;3.83;;;3.10;;
9140;SDS011;46330;50.822;7.126;2023-04-24T02:47:03;6.50;;;3.50;;
9140;SDS011;46330;50.822;7.126;2023-04-24T02:49:33;4.85;;;3.38;;
9140;SDS011;46330;50.822;7.126;2023-04-24T02:52:01;5.95;;;3.55;;
9140;SDS011;46330;50.822;7.126;2023-04-24T02:54:28;7.55;;;3.65;;
9140;SDS011;46330;50.822;7.126;2023-04-24T02:56:56;6.63;;;4.00;;
9140;SDS011;46330;50.822;7.126;2023-04-24T02:59:24;5.68;;;4.13;;
9140;SDS011;46330;50.822;7.126;2023-04-24T03:01:53;6.75;;;4.05;;
9140;SDS011;46330;50.822;7.126;2023-04-24T03:04:21;7.38;;;3.72;;
9140;SDS011;46330;50.822;7.126;2023-04-24T03:06:51;6.88;;;3.80;;
9140;SDS011;46330;50.822;7.126;2023-04-24T03:09:21;5.35;;;3.90;;
9140;SDS011;46330;50.822;7.126;2023-04-24T03:11:49;5.35;;;3.70;;
9140;SDS011;46330;50.822;7.126;2023-04-24T03:14:17;5.95;;;4.00;;
9140;SDS011;46330;50.822;7.126;2023-04-24T03:16:45;5.88;;;3.45;;
9140;SDS011;46330;50.822;7.126;2023-04-24T03:19:13;7.32;;;3.70;;
9140;SDS011;46330;50.822;7.126;2023-04-24T03:21:54;7.38;;;3.80;;
9140;SDS011;46330;50.822;7.126;2023-04-24T03:24:23;5.80;;;3.83;;
9140;SDS011;46330;50.822;7.126;2023-04-24T03:26:51;6.03;;;4.32;;
9140;SDS011;46330;50.822;7.126;2023-04-24T03:29:37;8.75;;;3.78;;
9140;SDS011;46330;50.822;7.126;2023-04-24T03:32:06;7.85;;;3.83;;
9140;SDS011;46330;50.822;7.126;2023-04-24T03:34:36;4.65;;;3.78;;
9140;SDS011;46330;50.822;7.126;2023-04-24T03:37:07;5.88;;;3.92;;
9140;SDS011;46330;50.822;7.126;2023-04-24T03:39:42;8.02;;;4.07;;
9140;SDS011;46330;50.822;7.126;2023-04-24T03:42:12;5.53;;;3.70;;
9140;SDS011;46330;50.822;7.126;2023-04-24T03:44:49;6.22;;;4.13;;
9140;SDS011;46330;50.822;7.126;2023-04-24T03:47:20;5.40;;;3.45;;
9140;SDS011;46330;50.822;7.126;2023-04-24T03:49:49;5.03;;;3.67;;
9140;SDS011;46330;50.822;7.126;2023-04-24T03:52:19;5.45;;;3.70;;
9140;SDS011;46330;50.822;7.126;2023-04-24T03:54:47;5.47;;;4.07;;
9140;SDS011;46330;50.822;7.126;2023-04-24T03:57:15;6.15;;;3.90;;
9140;SDS011;46330;50.822;7.126;2023-04-24T03:59:55;6.15;;;4.13;;
9140;SDS011;46330;50.822;7.126;2023-04-24T04:02:26;6.03;;;3.95;;
9140;SDS011;46330;50.822;7.126;2023-04-24T04:04:54;6.00;;;4.13;;
9140;SDS011;46330;50.822;7.126;2023-04-24T04:07:23;6.97;;;4.00;;
9140;SDS011;46330;50.822;7.126;2023-04-24T04:09:52;7.53;;;4.32;;
9140;SDS011;46330;50.822;7.126;2023-04-24T04:12:23;5.95;;;3.83;;
9140;SDS011;46330;50.822;7.126;2023-04-24T04:14:52;7.72;;;4.47;;
9140;SDS011;46330;50.822;7.126;2023-04-24T04:17:20;8.00;;;4.30;;
9140;SDS011;46330;50.822;7.126;2023-04-24T04:19:48;6.40;;;4.47;;
9140;SDS011;46330;50.822;7.126;2023-04-24T04:22:17;6.50;;;4.00;;
9140;SDS011;46330;50.822;7.126;2023-04-24T04:24:49;6.55;;;4.43;;
9140;SDS011;46330;50.822;7.126;2023-04-24T04:27:20;6.43;;;4.03;;
9140;SDS011;46330;50.822;7.126;2023-04-24T04:29:57;5.53;;;4.05;;
9140;SDS011;46330;50.822;7.126;2023-04-24T04:32:26;7.00;;;4.68;;
9140;SDS011;46330;50.822;7.126;2023-04-24T04:34:54;6.03;;;4.18;;
9140;SDS011;46330;50.822;7.126;2023-04-24T04:37:25;6.57;;;4.45;;
9140;SDS011;46330;50.822;7.126;2023-04-24T04:40:14;11.52;;;5.40;;
9140;SDS011;46330;50.822;7.126;2023-04-24T04:42:50;7.32;;;4.85;;
9140;SDS011;46330;50.822;7.126;2023-04-24T04:45:20;6.32;;;4.40;;
9140;SDS011;46330;50.822;7.126;2023-04-24T04:48:08;6.68;;;4.30;;
9140;SDS011;46330;50.822;7.126;2023-04-24T04:50:39;7.72;;;4.70;;
9140;SDS011;46330;50.822;7.126;2023-04-24T04:53:09;5.75;;;4.10;;
9140;SDS011;46330;50.822;7.126;2023-04-24T04:55:39;6.35;;;4.10;;
9140;SDS011;46330;50.822;7.126;2023-04-24T04:58:13;9.15;;;4.53;;
9140;SDS011;46330;50.822;7.126;2023-04-24T05:00:43;7.60;;;4.40;;
9140;SDS011;46330;50.822;7.126;2023-04-24T05:03:17;6.25;;;4.28;;
9140;SDS011;46330;50.822;7.126;2023-04-24T05:05:53;6.05;;;4.68;;
9140;SDS011;46330;50.822;7.126;2023-04-24T05:08:22;6.53;;;4.20;;
9140;SDS011;46330;50.822;7.126;2023-04-24T05:10:55;4.70;;;4.00;;
9140;SDS011;46330;50.822;7.126;2023-04-24T05:13:25;6.38;;;4.40;;
9140;SDS011;46330;50.822;7.126;2023-04-24T05:16:26;8.10;;;4.22;;
9140;SDS011;46330;50.822;7.126;2023-04-24T05:18:55;8.65;;;4.38;;
9140;SDS011;46330;50.822;7.126;2023-04-24T05:21:28;7.57;;;4.63;;
9140;SDS011;46330;50.822;7.126;2023-04-24T05:23:57;5.70;;;3.83;;
9140;SDS011;46330;50.822;7.126;2023-04-24T05:26:58;7.85;;;4.40;;
9140;SDS011;46330;50.822;7.126;2023-04-24T05:29:33;6.03;;;3.70;;
9140;SDS011;46330;50.822;7.126;2023-04-24T05:32:02;6.85;;;4.20;;
9140;SDS011;46330;50.822;7.126;2023-04-24T05:34:31;7.15;;;3.95;;
9140;SDS011;46330;50.822;7.126;2023-04-24T05:36:59;6.65;;;4.00;;
9140;SDS011;46330;50.822;7.126;2023-04-24T05:39:26;10.05;;;3.95;;
9140;SDS011;46330;50.822;7.126;2023-04-24T05:41:54;5.00;;;3.65;;
9140;SDS011;46330;50.822;7.126;2023-04-24T05:44:25;5.03;;;3.72;;
9140;SDS011;46330;50.822;7.126;2023-04-24T05:46:53;6.97;;;3.75;;
9140;SDS011;46330;50.822;7.126;2023-04-24T05:49:23;6.75;;;3.88;;
9140;SDS011;46330;50.822;7.126;2023-04-24T05:51:52;6.72;;;4.03;;
9140;SDS011;46330;50.822;7.126;2023-04-24T05:54:19;4.47;;;3.63;;
9140;SDS011;46330;50.822;7.126;2023-04-24T05:56:48;5.00;;;3.67;;
9140;SDS011;46330;50.822;7.126;2023-04-24T05:59:27;6.07;;;3.53;;
9140;SDS011;46330;50.822;7.126;2023-04-24T06:01:56;6.60;;;4.18;;
9140;SDS011;46330;50.822;7.126;2023-04-24T06:04:24;6.57;;;3.90;;
9140;SDS011;46330;50.822;7.126;2023-04-24T06:06:53;5.13;;;3.65;;
9140;SDS011;46330;50.822;7.126;2023-04-24T06:09:22;5.13;;;3.80;;
9140;SDS011;46330;50.822;7.126;2023-04-24T06:11:50;7.95;;;3.63;;
9140;SDS011;46330;50.822;7.126;2023-04-24T06:14:23;4.72;;;3.67;;
9140;SDS011;46330;50.822;7.126;2023-04-24T06:17:30;6.28;;;4.00;;
9140;SDS011;46330;50.822;7.126;2023-04-24T06:19:58;9.30;;;4.10;;
9140;SDS011;46330;50.822;7.126;2023-04-24T06:22:26;6.75;;;4.10;;
9140;SDS011;46330;50.822;7.126;2023-04-24T06:24:54;7.65;;;4.10;;
9140;SDS011;46330;50.822;7.126;2023-04-24T06:27:23;7.32;;;4.80;;
9140;SDS011;46330;50.822;7.126;2023-04-24T06:29:51;7.45;;;4.38;;
9140;SDS011;46330;50.822;7.126;2023-04-24T06:32:21;5.60;;;3.92;;
9140;SDS011;46330;50.822;7.126;2023-04-24T06:34:52;6.05;;;4.03;;
9140;SDS011;46330;50.822;7.126;2023-04-24T06:37:20;8.07;;;4.05;;
9140;SDS011;46330;50.822;7.126;2023-04-24T06:39:48;7.45;;;4.68;;
9140;SDS011;46330;50.822;7.126;2023-04-24T06:42:16;6.82;;;4.60;;
9140;SDS011;46330;50.822;7.126;2023-04-24T06:44:44;7.55;;;4.60;;
9140;SDS011;46330;50.822;7.126;2023-04-24T06:47:12;6.65;;;4.38;;
9140;SDS011;46330;50.822;7.126;2023-04-24T06:49:41;10.45;;;6.53;;
9140;SDS011;46330;50.822;7.126;2023-04-24T06:52:10;9.05;;;5.07;;
9140;SDS011;46330;50.822;7.126;2023-04-24T06:54:38;7.60;;;4.80;;
9140;SDS011;46330;50.822;7.126;2023-04-24T06:57:06;9.27;;;4.55;;
9140;SDS011;46330;50.822;7.126;2023-04-24T06:59:35;11.73;;;4.55;;
9140;SDS011;46330;50.822;7.126;2023-04-24T07:02:03;6.60;;;4.60;;
9140;SDS011;46330;50.822;7.126;2023-04-24T07:04:31;5.32;;;3.40;;
9140;SDS011;46330;50.822;7.126;2023-04-24T07:06:59;5.38;;;3.42;;
9140;SDS011;46330;50.822;7.126;2023-04-24T07:09:28;2.65;;;1.98;;
9140;SDS011;46330;50.822;7.126;2023-04-24T07:11:56;5.05;;;3.13;;
9140;SDS011;46330;50.822;7.126;2023-04-24T07:14:24;10.20;;;5.57;;
9140;SDS011;46330;50.822;7.126;2023-04-24T07:16:52;4.50;;;2.78;;
9140;SDS011;46330;50.822;7.126;2023-04-24T07:19:20;3.53;;;2.30;;
9140;SDS011;46330;50.822;7.126;2023-04-24T07:21:48;3.90;;;2.35;;
9140;SDS011;46330;50.822;7.126;2023-04-24T07:24:16;3.47;;;2.33;;
9140;SDS011;46330;50.822;7.126;2023-04-24T07:26:45;3.65;;;2.33;;
9140;SDS011;46330;50.822;7.126;2023-04-24T07:29:13;2.13;;;1.60;;
9140;SDS011;46330;50.822;7.126;2023-04-24T07:31:41;2.40;;;1.77;;
9140;SDS011;46330;50.822;7.126;2023-04-24T07:34:09;2.40;;;1.80;;
9140;SDS011;46330;50.822;7.126;2023-04-24T07:36:37;2.15;;;1.60;;
9140;SDS011;46330;50.822;7.126;2023-04-24T07:39:05;1.65;;;1.52;;
9140;SDS011;46330;50.822;7.126;2023-04-24T07:41:33;2.08;;;1.52;;
9140;SDS011;46330;50.822;7.126;2023-04-24T07:44:02;1.60;;;1.50;;
9140;SDS011;46330;50.822;7.126;2023-04-24T07:46:30;0.95;;;0.90;;
9140;SDS011;46330;50.822;7.126;2023-04-24T07:48:59;1.50;;;1.40;;
9140;SDS011;46330;50.822;7.126;2023-04-24T07:51:39;4.20;;;1.40;;
9140;SDS011;46330;50.822;7.126;2023-04-24T07:54:08;1.30;;;1.20;;
9140;SDS011;46330;50.822;7.126;2023-04-24T07:56:36;1.30;;;1.20;;
9140;SDS011;46330;50.822;7.126;2023-04-24T07:59:06;1.17;;;1.08;;
9140;SDS011;46330;50.822;7.126;2023-04-24T08:01:36;1.08;;;1.00;;
9140;SDS011;46330;50.822;7.126;2023-04-24T08:04:04;4.97;;;2.72;;
9140;SDS011;46330;50.822;7.126;2023-04-24T08:06:32;1.00;;;0.90;;
9140;SDS011;46330;50.822;7.126;2023-04-24T08:09:00;1.90;;;1.20;;
9140;SDS011;46330;50.822;7.126;2023-04-24T08:11:28;1.00;;;0.90;;
9140;SDS011;46330;50.822;7.126;2023-04-24T08:13:56;2.42;;;1.30;;
9140;SDS011;46330;50.822;7.126;2023-04-24T08:16:26;3.55;;;1.10;;
9140;SDS011;46330;50.822;7.126;2023-04-24T08:18:54;3.20;;;1.33;;
9140;SDS011;46330;50.822;7.126;2023-04-24T08:21:22;1.40;;;1.17;;
9140;SDS011;46330;50.822;7.126;2023-04-24T08:23:50;2.17;;;1.20;;
9140;SDS011;46330;50.822;7.126;2023-04-24T08:26:18;1.23;;;1.13;;
9140;SDS011;46330;50.822;7.126;2023-04-24T08:28:46;1.50;;;1.40;;
9140;SDS011;46330;50.822;7.126;2023-04-24T08:31:14;3.88;;;2.47;;
9140;SDS011;46330;50.822;7.126;2023-04-24T08:33:43;2.33;;;1.90;;
9140;SDS011;46330;50.822;7.126;2023-04-24T08:36:12;2.58;;;1.52;;
9140;SDS011;46330;50.822;7.126;2023-04-24T08:38:39;3.47;;;1.50;;
9140;SDS011;46330;50.822;7.126;2023-04-24T08:41:08;2.42;;;1.73;;
9140;SDS011;46330;50.822;7.126;2023-04-24T08:43:37;2.05;;;1.30;;
9140;SDS011;46330;50.822;7.126;2023-04-24T08:46:06;1.77;;;1.40;;
9140;SDS011;46330;50.822;7.126;2023-04-24T08:48:37;2.53;;;1.67;;
9140;SDS011;46330;50.822;7.126;2023-04-24T08:51:08;2.10;;;1.50;;
9140;SDS011;46330;50.822;7.126;2023-04-24T08:53:37;2.92;;;1.92;;
9140;SDS011;46330;50.822;7.126;2023-04-24T08:56:05;1.42;;;1.33;;
9140;SDS011;46330;50.822;7.126;2023-04-24T08:58:34;1.95;;;1.20;;
9140;SDS011;46330;50.822;7.126;2023-04-24T09:01:03;2.58;;;1.30;;
9140;SDS011;46330;50.822;7.126;2023-04-24T09:03:32;1.52;;;1.38;;
9140;SDS011;46330;50.822;7.126;2023-04-24T09:06:01;3.08;;;1.58;;
9140;SDS011;46330;50.822;7.126;2023-04-24T09:08:31;2.60;;;1.92;;
9140;SDS011;46330;50.822;7.126;2023-04-24T09:11:00;2.03;;;1.70;;
9140;SDS011;46330;50.822;7.126;2023-04-24T09:13:30;2.55;;;1.80;;
9140;SDS011;46330;50.822;7.126;2023-04-24T09:15:59;3.95;;;1.75;;
9140;SDS011;46330;50.822;7.126;2023-04-24T09:18:27;5.18;;;2.33;;
9140;SDS011;46330;50.822;7.126;2023-04-24T09:20:59;3.22;;;2.15;;
9140;SDS011;46330;50.822;7.126;2023-04-24T09:23:28;2.45;;;2.10;;
9140;SDS011;46330;50.822;7.126;2023-04-24T09:25:59;3.13;;;2.28;;
9140;SDS011;46330;50.822;7.126;2023-04-24T09:28:30;2.90;;;2.08;;
9140;SDS011;46330;50.822;7.126;2023-04-24T09:31:03;3.15;;;2.25;;
9140;SDS011;46330;50.822;7.126;2023-04-24T09:33:33;5.90;;;2.60;;
9140;SDS011;46330;50.822;7.126;2023-04-24T09:36:02;2.75;;;2.05;;
9140;SDS011;46330;50.822;7.126;2023-04-24T09:38:30;3.58;;;2.42;;
9140;SDS011;46330;50.822;7.126;2023-04-24T09:41:01;2.88;;;2.33;;
9140;SDS011;46330;50.822;7.126;2023-04-24T09:43:30;3.70;;;2.33;;
9140;SDS011;46330;50.822;7.126;2023-04-24T09:45:58;4.03;;;2.63;;
9140;SDS011;46330;50.822;7.126;2023-04-24T09:48:32;3.05;;;2.13;;
9140;SDS011;46330;50.822;7.126;2023-04-24T09:51:00;6.10;;;3.13;;
9140;SDS011;46330;50.822;7.126;2023-04-24T09:53:29;4.57;;;2.60;;
9140;SDS011;46330;50.822;7.126;2023-04-24T09:56:06;4.53;;;2.70;;
9140;SDS011;46330;50.822;7.126;2023-04-24T09:58:35;4.32;;;2.88;;
9140;SDS011;46330;50.822;7.126;2023-04-24T10:01:03;5.50;;;3.50;;
9140;SDS011;46330;50.822;7.126;2023-04-24T10:03:32;7.40;;;3.50;;
9140;SDS011;46330;50.822;7.126;2023-04-24T10:06:01;6.80;;;3.80;;
9140;SDS011;46330;50.822;7.126;2023-04-24T10:08:35;5.80;;;3.35;;
9140;SDS011;46330;50.822;7.126;2023-04-24T10:11:05;5.82;;;3.55;;
9140;SDS011;46330;50.822;7.126;2023-04-24T10:13:34;11.85;;;3.60;;
9140;SDS011;46330;50.822;7.126;2023-04-24T10:16:03;6.60;;;3.40;;
9140;SDS011;46330;50.822;7.126;2023-04-24T10:18:31;5.70;;;3.50;;
9140;SDS011;46330;50.822;7.126;2023-04-24T10:21:01;6.30;;;3.38;;
9140;SDS011;46330;50.822;7.126;2023-04-24T10:23:29;5.43;;;3.20;;
9140;SDS011;46330;50.822;7.126;2023-04-24T10:25:57;6.15;;;3.10;;
9140;SDS011;46330;50.822;7.126;2023-04-24T10:28:29;5.55;;;2.65;;
9140;SDS011;46330;50.822;7.126;2023-04-24T10:30:59;6.20;;;2.97;;
9140;SDS011;46330;50.822;7.126;2023-04-24T10:33:27;4.43;;;2.65;;
9140;SDS011;46330;50.822;7.126;2023-04-24T10:35:57;5.43;;;2.92;;
9140;SDS011;46330;50.822;7.126;2023-04-24T10:38:26;5.22;;;2.78;;
9140;SDS011;46330;50.822;7.126;2023-04-24T10:41:06;4.20;;;2.78;;
9140;SDS011;46330;50.822;7.126;2023-04-24T10:43:41;6.93;;;3.15;;
9140;SDS011;46330;50.822;7.126;2023-04-24T10:46:09;4.22;;;2.70;;
9140;SDS011;46330;50.822;7.126;2023-04-24T10:48:41;3.70;;;2.40;;
9140;SDS011;46330;50.822;7.126;2023-04-24T10:51:11;5.18;;;2.88;;
9140;SDS011;46330;50.822;7.126;2023-04-24T10:53:40;5.35;;;3.35;;
9140;SDS011;46330;50.822;7.126;2023-04-24T10:56:08;5.07;;;2.97;;
9140;SDS011;46330;50.822;7.126;2023-04-24T10:58:38;5.32;;;3.25;;
9140;SDS011;46330;50.822;7.126;2023-04-24T11:01:13;7.00;;;3.17;;
9140;SDS011;46330;50.822;7.126;2023-04-24T11:03:54;6.90;;;3.63;;
9140;SDS011;46330;50.822;7.126;2023-04-24T11:06:28;8.35;;;3.50;;
9140;SDS011;46330;50.822;7.126;2023-04-24T11:09:04;8.07;;;3.95;;
9140;SDS011;46330;50.822;7.126;2023-04-24T11:11:33;9.82;;;3.63;;
9140;SDS011;46330;50.822;7.126;2023-04-24T11:14:04;6.40;;;3.47;;
9140;SDS011;46330;50.822;7.126;2023-04-24T11:16:36;7.70;;;3.88;;
9140;SDS011;46330;50.822;7.126;2023-04-24T11:19:07;12.40;;;4.38;;
9140;SDS011;46330;50.822;7.126;2023-04-24T11:21:40;9.40;;;4.70;;
9140;SDS011;46330;50.822;7.126;2023-04-24T11:24:25;6.95;;;4.03;;
9140;SDS011;46330;50.822;7.126;2023-04-24T11:27:05;7.40;;;3.65;;
9140;SDS011;46330;50.822;7.126;2023-04-24T11:29:39;7.50;;;3.55;;
9140;SDS011;46330;50.822;7.126;2023-04-24T11:32:23;8.95;;;4.57;;
9140;SDS011;46330;50.822;7.126;2023-04-24T11:34:54;9.13;;;4.40;;
9140;SDS011;46330;50.822;7.126;2023-04-24T11:37:23;6.22;;;3.83;;
9140;SDS011;46330;50.822;7.126;2023-04-24T11:39:53;8.13;;;4.47;;
9140;SDS011;46330;50.822;7.126;2023-04-24T11:42:23;8.38;;;4.82;;
9140;SDS011;46330;50.822;7.126;2023-04-24T11:44:52;11.68;;;5.03;;
9140;SDS011;46330;50.822;7.126;2023-04-24T11:47:28;8.82;;;4.55;;
9140;SDS011;46330;50.822;7.126;2023-04-24T11:49:57;9.18;;;4.68;;
9140;SDS011;46330;50.822;7.126;2023-04-24T11:52:27;10.20;;;4.47;;
9140;SDS011;46330;50.822;7.126;2023-04-24T11:54:55;9.32;;;4.72;;
9140;SDS011;46330;50.822;7.126;2023-04-24T11:57:24;8.65;;;4.57;;
9140;SDS011;46330;50.822;7.126;2023-04-24T11:59:55;9.30;;;5.03;;
9140;SDS011;46330;50.822;7.126;2023-04-24T12:02:23;11.00;;;5.18;;
9140;SDS011;46330;50.822;7.126;2023-04-24T12:04:54;7.35;;;3.70;;
9140;SDS011;46330;50.822;7.126;2023-04-24T12:07:23;8.35;;;4.15;;
9140;SDS011;46330;50.822;7.126;2023-04-24T12:09:55;7.50;;;4.25;;
9140;SDS011;46330;50.822;7.126;2023-04-24T12:12:28;8.68;;;4.20;;
9140;SDS011;46330;50.822;7.126;2023-04-24T12:14:56;9.90;;;4.55;;
9140;SDS011;46330;50.822;7.126;2023-04-24T12:17:26;9.82;;;4.45;;
9140;SDS011;46330;50.822;7.126;2023-04-24T12:19:58;8.05;;;4.35;;
9140;SDS011;46330;50.822;7.126;2023-04-24T12:22:27;10.32;;;4.28;;
9140;SDS011;46330;50.822;7.126;2023-04-24T12:24:59;9.05;;;4.43;;
9140;SDS011;46330;50.822;7.126;2023-04-24T12:27:29;10.50;;;4.15;;
9140;SDS011;46330;50.822;7.126;2023-04-24T12:29:59;8.95;;;4.40;;
9140;SDS011;46330;50.822;7.126;2023-04-24T12:32:27;10.02;;;4.47;;
9140;SDS011;46330;50.822;7.126;2023-04-24T12:34:56;11.80;;;5.05;;
9140;SDS011;46330;50.822;7.126;2023-04-24T12:37:26;12.38;;;4.55;;
9140;SDS011;46330;50.822;7.126;2023-04-24T12:40:00;11.23;;;5.03;;
9140;SDS011;46330;50.822;7.126;2023-04-24T12:42:30;10.18;;;5.20;;
9140;SDS011;46330;50.822;7.126;2023-04-24T12:44:58;13.10;;;4.90;;
9140;SDS011;46330;50.822;7.126;2023-04-24T12:47:28;8.93;;;4.68;;
9140;SDS011;46330;50.822;7.126;2023-04-24T12:49:56;10.88;;;5.10;;
9140;SDS011;46330;50.822;7.126;2023-04-24T12:52:26;12.40;;;5.22;;
9140;SDS011;46330;50.822;7.126;2023-04-24T12:54:56;12.48;;;5.10;;
9140;SDS011;46330;50.822;7.126;2023-04-24T12:57:25;10.52;;;5.10;;
9140;SDS011;46330;50.822;7.126;2023-04-24T12:59:54;9.73;;;4.97;;
9140;SDS011;46330;50.822;7.126;2023-04-24T13:02:23;8.20;;;4.15;;
9140;SDS011;46330;50.822;7.126;2023-04-24T13:04:52;8.90;;;3.83;;
9140;SDS011;46330;50.822;7.126;2023-04-24T13:07:20;8.30;;;4.18;;
9140;SDS011;46330;50.822;7.126;2023-04-24T13:09:50;8.88;;;4.03;;
9140;SDS011;46330;50.822;7.126;2023-04-24T13:12:19;8.55;;;4.30;;
9140;SDS011;46330;50.822;7.126;2023-04-24T13:14:47;8.30;;;4.38;;
9140;SDS011;46330;50.822;7.126;2023-04-24T13:17:15;10.25;;;4.82;;
9140;SDS011;46330;50.822;7.126;2023-04-24T13:19:43;10.90;;;4.75;;
9140;SDS011;46330;50.822;7.126;2023-04-24T13:22:12;8.52;;;3.88;;
9140;SDS011;46330;50.822;7.126;2023-04-24T13:24:40;12.75;;;4.40;;
9140;SDS011;46330;50.822;7.126;2023-04-24T13:27:09;9.98;;;3.88;;
9140;SDS011;46330;50.822;7.126;2023-04-24T13:29:38;13.13;;;5.07;;
9140;SDS011;46330;50.822;7.126;2023-04-24T13:32:06;8.65;;;3.40;;
9140;SDS011;46330;50.822;7.126;2023-04-24T13:34:35;11.32;;;3.90;;
9140;SDS011;46330;50.822;7.126;2023-04-24T13:37:03;9.32;;;4.13;;
9140;SDS011;46330;50.822;7.126;2023-04-24T13:39:32;11.60;;;4.20;;
9140;SDS011;46330;50.822;7.126;2023-04-24T13:42:00;9.95;;;4.22;;
9140;SDS011;46330;50.822;7.126;2023-04-24T13:44:31;9.05;;;3.85;;
9140;SDS011;46330;50.822;7.126;2023-04-24T13:46:59;10.73;;;4.15;;
9140;SDS011;46330;50.822;7.126;2023-04-24T13:49:27;12.00;;;4.57;;
9140;SDS011;46330;50.822;7.126;2023-04-24T13:51:55;10.43;;;4.80;;
9140;SDS011;46330;50.822;7.126;2023-04-24T13:54:24;8.77;;;4.10;;
9140;SDS011;46330;50.822;7.126;2023-04-24T13:56:52;9.73;;;4.18;;
9140;SDS011;46330;50.822;7.126;2023-04-24T13:59:20;9.35;;;4.00;;
9140;SDS011;46330;50.822;7.126;2023-04-24T14:01:49;10.15;;;4.00;;
9140;SDS011;46330;50.822;7.126;2023-04-24T14:04:17;7.97;;;3.78;;
9140;SDS011;46330;50.822;7.126;2023-04-24T14:06:46;10.70;;;4.10;;
9140;SDS011;46330;50.822;7.126;2023-04-24T14:09:13;8.07;;;4.00;;
9140;SDS011;46330;50.822;7.126;2023-04-24T14:11:41;9.75;;;4.20;;
9140;SDS011;46330;50.822;7.126;2023-04-24T14:14:09;8.77;;;4.15;;
9140;SDS011;46330;50.822;7.126;2023-04-24T14:16:37;9.48;;;4.60;;
9140;SDS011;46330;50.822;7.126;2023-04-24T14:19:07;7.20;;;4.22;;
9140;SDS011;46330;50.822;7.126;2023-04-24T14:21:36;9.88;;;4.30;;
9140;SDS011;46330;50.822;7.126;2023-04-24T14:24:04;7.38;;;3.85;;
9140;SDS011;46330;50.822;7.126;2023-04-24T14:26:32;12.15;;;4.22;;
9140;SDS011;46330;50.822;7.126;2023-04-24T14:29:00;9.38;;;3.78;;
9140;SDS011;46330;50.822;7.126;2023-04-24T14:31:31;8.88;;;4.03;;
9140;SDS011;46330;50.822;7.126;2023-04-24T14:33:59;8.50;;;4.15;;
9140;SDS011;46330;50.822;7.126;2023-04-24T14:36:28;10.32;;;4.38;;
9140;SDS011;46330;50.822;7.126;2023-04-24T14:38:56;7.43;;;3.80;;
9140;SDS011;46330;50.822;7.126;2023-04-24T14:41:24;7.90;;;4.25;;
9140;SDS011;46330;50.822;7.126;2023-04-24T14:43:52;9.90;;;4.55;;
9140;SDS011;46330;50.822;7.126;2023-04-24T14:46:20;11.10;;;4.40;;
9140;SDS011;46330;50.822;7.126;2023-04-24T14:48:48;7.57;;;3.60;;
9140;SDS011;46330;50.822;7.126;2023-04-24T14:51:16;8.30;;;4.10;;
9140;SDS011;46330;50.822;7.126;2023-04-24T14:53:45;8.30;;;4.05;;
9140;SDS011;46330;50.822;7.126;2023-04-24T14:56:14;6.45;;;3.88;;
9140;SDS011;46330;50.822;7.126;2023-04-24T14:58:42;8.82;;;4.20;;
9140;SDS011;46330;50.822;7.126;2023-04-24T15:01:10;9.45;;;3.70;;
9140;SDS011;46330;50.822;7.126;2023-04-24T15:03:38;7.15;;;3.72;;
9140;SDS011;46330;50.822;7.126;2023-04-24T15:06:06;10.93;;;3.70;;
9140;SDS011;46330;50.822;7.126;2023-04-24T15:08:34;6.68;;;3.45;;
9140;SDS011;46330;50.822;7.126;2023-04-24T15:11:03;7.38;;;3.83;;
9140;SDS011;46330;50.822;7.126;2023-04-24T15:13:32;9.15;;;3.78;;
9140;SDS011;46330;50.822;7.126;2023-04-24T15:15:59;8.05;;;3.72;;